Cognac-Châteaubernard

LFBG · Charente, Nouvelle-Aquitaine, France

METAR history LFBG · Cognac-Châteaubernard

Below you see METARs of the last few days. Select a year to browse through older METARs, from the year 2007 onwards.

April 15, 2024

Time Code Weather Temp. Visibility Ceiling Wind METAR/SPECI
17:00
V
15 °C 10 km+ 4,500 ft 260° 260° 15 kt METAR LFBG 151500Z AUTO 26015KT 220V290 9999 SCT036 OVC045 15/07 Q1022 BECMG 27015G25KT
16:30
V
15 °C 10 km+ 3,600 ft 270° 270° 16 kt METAR LFBG 151430Z AUTO 27016KT 9999 BKN036 OVC043 15/07 Q1022 BECMG 28015G25KT
16:00
V
15 °C 10 km+ 3,400 ft 280° 280° 16 kt METAR LFBG 151400Z AUTO 28016KT 9999 BKN034 OVC044 15/07 Q1023 BECMG 28015G25KT
15:30
V
16 °C 10 km+ 4,100 ft 270° 270° 15 kt METAR LFBG 151330Z AUTO 27015KT 250V310 9999 FEW033 BKN041 16/07 Q1023 BECMG 28015G25KT
15:00
V
15 °C 10 km+ 3,800 ft 280° 280° 14 kt METAR LFBG 151300Z AUTO 28014KT 9999 BKN038 15/07 Q1023 BECMG 28015G25KT
14:30
V
16 °C 10 km+ 4,100 ft 270° 270° 16 kt METAR LFBG 151230Z AUTO 27016KT 9999 BKN041 16/07 Q1023 BECMG 28015G25KT
14:00
V
16 °C 10 km+ 3,700 ft 270° 270° 16 kt METAR LFBG 151200Z AUTO 27016KT 230V310 9999 BKN037 16/07 Q1023 BECMG 28015G25KT
13:30
V
15 °C 10 km+ 3,400 ft 290° 290° 13 kt METAR LFBG 151130Z AUTO 29013KT 260V320 9999 BKN034 15/07 Q1023 BECMG 28015G25KT
13:00
V
15 °C 10 km+ 3,300 ft 280° 280° 12 kt METAR LFBG 151100Z AUTO 28012KT 260V330 9999 BKN033 15/06 Q1023 BECMG 28015G25KT
12:30
V
15 °C 10 km+ 3,400 ft 290° 290° 11 kt METAR LFBG 151030Z AUTO 29011KT 260V330 9999 BKN034 15/07 Q1024 BECMG 28015G25KT
12:00
V
15 °C 10 km+ - 280° 280° 11 kt METAR LFBG 151000Z AUTO 28011KT 260V320 9999 FEW035 15/06 Q1023 BECMG 28015G25KT
11:30
V
14 °C 10 km+ - 300° 300° 11 kt METAR LFBG 150930Z AUTO 30011KT 9999 FEW030 14/05 Q1023 BECMG 28015G25KT
11:00
V
14 °C 10 km+ - 290° 290° 10 kt METAR LFBG 150900Z AUTO 29010KT 260V330 9999 SCT029 14/05 Q1023 BECMG 28015G25KT
10:30
M
14 °C 10 km+ 2,800 ft 300° 300° 10 kt METAR LFBG 150830Z AUTO 30010KT 9999 BKN028 14/06 Q1023 BECMG 28015G25KT
10:00
M
14 °C 10 km+ 2,900 ft 300° 300° 12 kt METAR LFBG 150800Z AUTO 30012KT 9999 BKN029 14/07 Q1023 NOSIG
09:30
V
14 °C 10 km+ - 320° 320° 7 kt METAR LFBG 150730Z AUTO 32007KT 290V350 9999 FEW012 14/08 Q1022 NOSIG
09:00
I
13 °C 10 km+ 800 ft 300° 300° 6 kt METAR LFBG 150700Z AUTO 30006KT 9999 OVC008 13/11 Q1022 BECMG SCT020
08:30
I
13 °C 10 km+ 600 ft 290° 290° 9 kt METAR LFBG 150630Z AUTO 29009KT 9999 OVC006 13/11 Q1022 BECMG SCT020
08:00
I
13 °C 10 km+ 600 ft 300° 300° 8 kt METAR LFBG 150600Z AUTO 30008KT 9999 OVC006 13/12 Q1021 BECMG SCT020
07:30
I
14 °C 10 km+ 700 ft 280° 280° 8 kt METAR LFBG 150530Z AUTO 28008KT 250V310 9999 OVC007 14/12 Q1021 BECMG SCT020
07:00
I
14 °C 10 km+ 800 ft 240° 240° 6 kt METAR LFBG 150500Z AUTO 24006KT 9999 OVC008 14/12 Q1021
06:30
I
14 °C 10 km+ 800 ft 260° 260° 5 kt METAR LFBG 150430Z AUTO 26005KT 9999 OVC008 14/12 Q1020
06:00
I
14 °C 10 km+ 800 ft 270° 270° 4 kt METAR LFBG 150400Z AUTO 27004KT 9999 OVC008 14/12 Q1020
05:30
I
14 °C 10 km+ 700 ft 290° 290° 6 kt METAR LFBG 150330Z AUTO 29006KT 9999 OVC007 14/12 Q1021
05:00
I
14 °C 10 km+ 800 ft 290° 290° 5 kt METAR LFBG 150300Z AUTO 29005KT 9999 OVC008 14/12 Q1021
04:30
I
14 °C 10 km+ 700 ft 300° 300° 9 kt METAR LFBG 150230Z AUTO 30009KT 9999 OVC007 14/12 Q1021
04:00
V
14 °C 10 km+ 24,000 ft 270° 270° 10 kt METAR LFBG 150200Z AUTO 27010KT 9999 FEW007 OVC240 14/12 Q1020
03:30
V
14 °C 10 km+ - 260° 260° 6 kt METAR LFBG 150130Z AUTO 26006KT CAVOK 14/12 Q1020
03:00
V
14 °C 10 km+ - 270° 270° 8 kt METAR LFBG 150100Z AUTO 27008KT CAVOK 14/12 Q1020
02:30
V
14 °C 10 km+ - 260° 260° 5 kt METAR LFBG 150030Z AUTO 26005KT CAVOK 14/12 Q1020
02:00
V
15 °C 10 km+ - 250° 250° 5 kt METAR LFBG 150000Z AUTO 25005KT CAVOK 15/12 Q1021
01:30
V
15 °C 10 km+ - 260° 260° 5 kt METAR LFBG 142330Z AUTO 26005KT CAVOK 15/12 Q1021
01:00
V
15 °C 10 km+ - 260° 260° 4 kt METAR LFBG 142300Z AUTO 26004KT CAVOK 15/12 Q1021
00:30
V
16 °C 10 km+ - Var Var 2 kt METAR LFBG 142230Z AUTO VRB02KT CAVOK 16/12 Q1021
00:00
V
16 °C 10 km+ - 290° 290° 2 kt METAR LFBG 142200Z AUTO 29002KT CAVOK 16/12 Q1021

April 14, 2024

Time Code Weather Temp. Visibility Ceiling Wind METAR/SPECI
23:30
V
16 °C 10 km+ - 300° 300° 3 kt METAR LFBG 142130Z AUTO 30003KT CAVOK 16/12 Q1021
23:00
V
17 °C 10 km+ - 290° 290° 6 kt METAR LFBG 142100Z AUTO 29006KT CAVOK 17/12 Q1021
22:30
V
18 °C 10 km+ - 300° 300° 8 kt METAR LFBG 142030Z AUTO 30008KT CAVOK 18/12 Q1021
22:00
V
19 °C 10 km+ - 300° 300° 7 kt METAR LFBG 142000Z AUTO 30007KT CAVOK 19/13 Q1020
21:30
V
20 °C 10 km+ - 310° 310° 7 kt METAR LFBG 141930Z AUTO 31007KT CAVOK 20/13 Q1020
21:00
V
22 °C 10 km+ - 310° 310° 8 kt METAR LFBG 141900Z AUTO 31008KT CAVOK 22/15 Q1020
20:30
V
23 °C 10 km+ - 300° 300° 6 kt METAR LFBG 141830Z AUTO 30006KT CAVOK 23/14 Q1019
20:00
V
24 °C 10 km+ - 320° 320° 5 kt METAR LFBG 141800Z AUTO 32005KT CAVOK 24/14 Q1019
19:30
V
25 °C 10 km+ - 290° 290° 6 kt METAR LFBG 141730Z AUTO 29006KT CAVOK 25/14 Q1020
19:00
V
27 °C 10 km+ - 270° 270° 6 kt METAR LFBG 141700Z AUTO 27006KT CAVOK 27/13 Q1020
18:30
V
27 °C 10 km+ - 280° 280° 6 kt METAR LFBG 141630Z AUTO 28006KT CAVOK 27/12 Q1020
18:00
V
27 °C 10 km+ - 310° 310° 5 kt METAR LFBG 141600Z AUTO 31005KT 260V350 CAVOK 27/12 Q1020
17:30
V
27 °C 10 km+ - 300° 300° 4 kt METAR LFBG 141530Z AUTO 30004KT 230V360 CAVOK 27/13 Q1020
17:00
V
27 °C 10 km+ - 280° 280° 5 kt METAR LFBG 141500Z AUTO 28005KT 220V350 CAVOK 27/13 Q1021
16:30
V
27 °C 10 km+ - 330° 330° 3 kt METAR LFBG 141430Z AUTO 33003KT 200V010 CAVOK 27/12 Q1021
16:00
V
27 °C 10 km+ - Var Var 3 kt METAR LFBG 141400Z AUTO VRB03KT CAVOK 27/13 Q1021
15:30
V
26 °C 10 km+ - Var Var 4 kt METAR LFBG 141330Z AUTO VRB04KT CAVOK 26/13 Q1022
15:00
V
26 °C 10 km+ - Var Var 3 kt METAR LFBG 141300Z AUTO VRB03KT CAVOK 26/13 Q1022
14:30
V
25 °C 10 km+ - 280° 280° 4 kt METAR LFBG 141230Z AUTO 28004KT 240V330 CAVOK 25/13 Q1023
14:00
V
25 °C 10 km+ - Var Var 3 kt METAR LFBG 141200Z AUTO VRB03KT CAVOK 25/12 Q1023
13:30
V
25 °C 10 km+ - 230° 230° 3 kt METAR LFBG 141130Z AUTO 23003KT 140V280 CAVOK 25/12 Q1023
13:00
V
25 °C 10 km+ - Var Var 2 kt METAR LFBG 141100Z AUTO VRB02KT CAVOK 25/12 Q1024
12:30
V
24 °C 10 km+ - Var Var 2 kt METAR LFBG 141030Z AUTO VRB02KT CAVOK 24/14 Q1024
12:00
V
23 °C 10 km+ - Var Var 2 kt METAR LFBG 141000Z AUTO VRB02KT CAVOK 23/15 Q1024
11:30
V
22 °C 10 km+ - Var Var 2 kt METAR LFBG 140930Z AUTO VRB02KT CAVOK 22/14 Q1024
11:00
V
21 °C 10 km+ - Var Var 2 kt METAR LFBG 140900Z AUTO VRB02KT CAVOK 21/15 Q1024
10:30
V
19 °C 10 km+ - Var Var 2 kt METAR LFBG 140830Z AUTO VRB02KT CAVOK 19/14 Q1025
10:00
V
18 °C 10 km+ - 360° 360° 0 kt METAR LFBG 140800Z AUTO 00000KT CAVOK 18/14 Q1025
09:30
V
17 °C 10 km+ - 360° 360° 0 kt METAR LFBG 140730Z AUTO 00000KT CAVOK 17/14 Q1024
09:00
V
15 °C 10 km+ - 360° 360° 0 kt METAR LFBG 140700Z AUTO 00000KT CAVOK 15/13 Q1024
08:30
L
12 °C 10 km+ - 360° 360° 0 kt METAR LFBG 140630Z AUTO 00000KT 9999 VV/// 12/11 Q1025
08:00
L
10 °C 2.5 km - 360° 360° 0 kt METAR LFBG 140600Z AUTO 00000KT 2500 R23/0900U BCFG VV/// 10/10 Q1025
07:30
L
10 °C 550 m - 180° 180° 1 kt METAR LFBG 140530Z AUTO 18001KT 1200 0550 R23/0700U BCFG VV/// 10/10 Q1024
07:00
L
10 °C 1.1 km - 120° 120° 1 kt METAR LFBG 140500Z AUTO 12001KT 5000 1100 R23/1400U BR NSC 10/09 Q1024
06:30
L
11 °C 800 m - 320° 320° 2 kt METAR LFBG 140430Z AUTO 32002KT 5000 0800 R23/1100U BCFG VV/// 11/10 Q1024
06:00
V
11 °C 10 km+ - 360° 360° 0 kt METAR LFBG 140400Z AUTO 00000KT CAVOK 11/11 Q1024
05:30
I
11 °C 3.1 km - 360° 360° 0 kt METAR LFBG 140330Z AUTO 00000KT 9999 3100 NSC 11/10 Q1025
05:00
V
11 °C 10 km+ - 210° 210° 2 kt METAR LFBG 140300Z AUTO 21002KT CAVOK 11/10 Q1025
04:30
V
13 °C 10 km+ - 320° 320° 1 kt METAR LFBG 140230Z AUTO 32001KT CAVOK 13/12 Q1025
04:00
V
13 °C 10 km+ - 360° 360° 0 kt METAR LFBG 140200Z AUTO 00000KT CAVOK 13/12 Q1025
03:30
V
13 °C 10 km+ - 130° 130° 1 kt METAR LFBG 140130Z AUTO 13001KT CAVOK 13/13 Q1025
03:00
V
14 °C 10 km+ - 100° 100° 2 kt METAR LFBG 140100Z AUTO 10002KT CAVOK 14/12 Q1025
02:30
V
14 °C 10 km+ - 360° 360° 0 kt METAR LFBG 140030Z AUTO 00000KT CAVOK 14/12 Q1025
02:00
V
14 °C 10 km+ - 360° 360° 0 kt METAR LFBG 140000Z AUTO 00000KT CAVOK 14/12 Q1025
01:30
V
14 °C 10 km+ - 210° 210° 1 kt METAR LFBG 132330Z AUTO 21001KT CAVOK 14/12 Q1025
01:00
V
15 °C 10 km+ - 360° 360° 0 kt METAR LFBG 132300Z AUTO 00000KT CAVOK 15/13 Q1025
00:30
V
16 °C 10 km+ - 270° 270° 2 kt METAR LFBG 132230Z AUTO 27002KT CAVOK 16/13 Q1025
00:00
V
17 °C 10 km+ - 260° 260° 2 kt METAR LFBG 132200Z AUTO 26002KT CAVOK 17/13 Q1025

April 13, 2024

Time Code Weather Temp. Visibility Ceiling Wind METAR/SPECI
23:30
V
17 °C 10 km+ - 290° 290° 2 kt METAR LFBG 132130Z AUTO 29002KT CAVOK 17/14 Q1025
23:00
V
18 °C 10 km+ - 270° 270° 2 kt METAR LFBG 132100Z AUTO 27002KT CAVOK 18/14 Q1025
22:30
V
19 °C 10 km+ - 360° 360° 0 kt METAR LFBG 132030Z AUTO 00000KT CAVOK 19/14 Q1025
22:00
V
20 °C 10 km+ - 330° 330° 4 kt METAR LFBG 132000Z AUTO 33004KT CAVOK 20/14 Q1025
21:30
V
21 °C 10 km+ - 340° 340° 4 kt METAR LFBG 131930Z AUTO 34004KT CAVOK 21/14 Q1025
21:00
V
22 °C 10 km+ - 320° 320° 4 kt METAR LFBG 131900Z AUTO 32004KT CAVOK 22/14 Q1025
20:30
V
24 °C 10 km+ - 320° 320° 5 kt METAR LFBG 131830Z AUTO 32005KT CAVOK 24/15 Q1025
20:00
V
26 °C 10 km+ - 290° 290° 7 kt METAR LFBG 131800Z AUTO 29007KT CAVOK 26/15 Q1025
19:30
V
27 °C 10 km+ - 280° 280° 6 kt METAR LFBG 131730Z AUTO 28006KT CAVOK 27/14 Q1025
19:00
V
28 °C 10 km+ - 290° 290° 5 kt METAR LFBG 131700Z AUTO 29005KT CAVOK 28/12 Q1025
18:30
V
28 °C 10 km+ - 310° 310° 5 kt METAR LFBG 131630Z AUTO 31005KT 280V340 CAVOK 28/12 Q1024
18:00
V
28 °C 10 km+ - 310° 310° 5 kt METAR LFBG 131600Z AUTO 31005KT 280V360 CAVOK 28/13 Q1025
17:30
V
29 °C 10 km+ - Var Var 5 kt METAR LFBG 131530Z AUTO VRB05KT CAVOK 29/13 Q1025
17:00
V
29 °C 10 km+ - 290° 290° 4 kt METAR LFBG 131500Z AUTO 29004KT 230V350 CAVOK 29/12 Q1025
16:30
V
29 °C 10 km+ - 280° 280° 4 kt METAR LFBG 131430Z AUTO 28004KT CAVOK 29/11 Q1025
16:00
V
28 °C 10 km+ - 280° 280° 3 kt METAR LFBG 131400Z AUTO 28003KT 240V330 CAVOK 28/12 Q1025
15:30
V
28 °C 10 km+ - 210° 210° 5 kt METAR LFBG 131330Z AUTO 21005KT 170V260 CAVOK 28/12 Q1026
15:00
V
28 °C 10 km+ - Var Var 3 kt METAR LFBG 131300Z AUTO VRB03KT CAVOK 28/13 Q1026
14:30
V
27 °C 10 km+ - 290° 290° 4 kt METAR LFBG 131230Z AUTO 29004KT 250V340 CAVOK 27/13 Q1026
14:00
V
27 °C 10 km+ - Var Var 3 kt METAR LFBG 131200Z AUTO VRB03KT CAVOK 27/14 Q1027
13:30
V
26 °C 10 km+ - 300° 300° 4 kt METAR LFBG 131130Z AUTO 30004KT 250V040 CAVOK 26/14 Q1027
13:00
V
25 °C 10 km+ - Var Var 3 kt METAR LFBG 131100Z AUTO VRB03KT CAVOK 25/13 Q1027
12:30
V
25 °C 10 km+ - Var Var 3 kt METAR LFBG 131030Z AUTO VRB03KT CAVOK 25/15 Q1027
12:00
V
24 °C 10 km+ - Var Var 3 kt METAR LFBG 131000Z AUTO VRB03KT CAVOK 24/16 Q1028
11:30
V
23 °C 10 km+ - Var Var 2 kt METAR LFBG 130930Z AUTO VRB02KT CAVOK 23/15 Q1028
11:00
V
22 °C 10 km+ - Var Var 3 kt METAR LFBG 130900Z AUTO VRB03KT CAVOK 22/16 Q1028
10:30
V
20 °C 10 km+ - 360° 360° 0 kt METAR LFBG 130830Z AUTO 00000KT CAVOK 20/15 Q1028
10:00
V
18 °C 10 km+ - Var Var 2 kt METAR LFBG 130800Z AUTO VRB02KT CAVOK 18/14 Q1028
09:30
V
15 °C 10 km+ - Var Var 2 kt METAR LFBG 130730Z AUTO VRB02KT CAVOK 15/13 Q1028
09:00
V
13 °C 10 km+ - 060° 060° 2 kt METAR LFBG 130700Z AUTO 06002KT CAVOK 13/12 Q1028
08:30
V
11 °C 10 km+ - 120° 120° 1 kt METAR LFBG 130630Z AUTO 12001KT CAVOK 11/10 Q1028
08:00
L
10 °C 450 m - 360° 360° 0 kt METAR LFBG 130600Z AUTO 00000KT 9999 0450 R23/0600D BCFG NSC 10/09 Q1028
Report a change